createdAt,value
2018-05-31T00:01:20.455Z,93.40
2018-05-31T00:03:48.228Z,93.40
2018-05-31T00:06:15.984Z,93.40
2018-05-31T00:08:43.761Z,93.30
2018-05-31T00:11:11.537Z,93.30
2018-05-31T00:13:39.415Z,93.50
2018-05-31T00:16:07.076Z,93.60
2018-05-31T00:18:35.100Z,93.50
2018-05-31T00:21:02.950Z,93.50
2018-05-31T00:23:30.640Z,93.80
2018-05-31T00:25:59.134Z,93.80
2018-05-31T00:28:26.969Z,93.80
2018-05-31T00:30:54.770Z,93.80
2018-05-31T00:33:22.592Z,93.70
2018-05-31T00:35:51.065Z,93.70
2018-05-31T00:38:19.636Z,93.60
2018-05-31T00:40:47.411Z,93.60
2018-05-31T00:43:15.109Z,93.80
2018-05-31T00:45:42.889Z,93.80
2018-05-31T00:48:10.638Z,93.80
2018-05-31T00:50:38.441Z,93.80
2018-05-31T00:53:06.080Z,93.70
2018-05-31T00:55:45.745Z,93.90
2018-05-31T00:58:13.441Z,94.70
2018-05-31T01:00:41.299Z,94.90
2018-05-31T01:03:09.075Z,94.60
2018-05-31T01:05:36.953Z,94.40
2018-05-31T01:08:04.772Z,94.20
2018-05-31T01:10:33.364Z,94.10
2018-05-31T01:13:02.127Z,94.20
2018-05-31T01:15:30.006Z,94.20
2018-05-31T01:17:57.886Z,94.20
2018-05-31T01:20:25.592Z,94.50
2018-05-31T01:22:54.153Z,97.20
2018-05-31T01:25:21.929Z,97.10
2018-05-31T01:27:49.631Z,95.90
2018-05-31T01:30:18.199Z,95.40
2018-05-31T01:32:45.871Z,94.90
2018-05-31T01:35:13.749Z,94.60
2018-05-31T01:37:41.527Z,94.50
2018-05-31T01:40:09.201Z,94.90
2018-05-31T01:42:36.874Z,94.60
2018-05-31T01:45:04.857Z,94.70
2018-05-31T01:47:32.735Z,94.70
2018-05-31T01:50:00.616Z,94.90
2018-05-31T01:52:28.420Z,94.50
2018-05-31T01:54:56.986Z,94.60
2018-05-31T01:57:24.787Z,94.60
2018-05-31T01:59:52.537Z,94.60
2018-05-31T02:02:20.312Z,94.60
2018-05-31T02:04:47.987Z,94.60
2018-05-31T02:07:15.674Z,94.60
2018-05-31T02:09:43.410Z,94.80
2018-05-31T02:12:11.953Z,96.10
2018-05-31T02:14:39.707Z,96.10
2018-05-31T02:17:07.587Z,96.40
2018-05-31T02:19:35.364Z,95.80
2018-05-31T02:22:03.348Z,95.30
2018-05-31T02:24:31.169Z,95.20
2018-05-31T02:26:59.943Z,95.30
2018-05-31T02:29:28.522Z,95.20
2018-05-31T02:31:56.396Z,95.20
2018-05-31T02:34:24.172Z,95.20
2018-05-31T02:36:51.948Z,95.10
2018-05-31T02:39:19.652Z,95.00
2018-05-31T02:41:48.217Z,95.10
2018-05-31T02:44:16.097Z,95.00
2018-05-31T02:46:43.771Z,95.30
2018-05-31T02:49:11.548Z,95.60
2018-05-31T02:51:39.216Z,95.30
2018-05-31T02:54:07.126Z,96.00
2018-05-31T02:56:34.875Z,95.60
2018-05-31T02:59:02.960Z,96.80
2018-05-31T03:01:30.662Z,96.50
2018-05-31T03:03:59.252Z,96.00
2018-05-31T03:06:27.005Z,95.90
2018-05-31T03:08:54.684Z,96.70
2018-05-31T03:11:22.385Z,97.70
2018-05-31T03:13:50.130Z,97.30
2018-05-31T03:16:17.906Z,98.70
2018-05-31T03:18:45.597Z,98.30
2018-05-31T03:21:13.360Z,96.60
2018-05-31T03:23:41.135Z,97.40
2018-05-31T03:26:08.830Z,98.30
2018-05-31T03:28:36.730Z,97.70
2018-05-31T03:31:05.183Z,96.70
2018-05-31T03:33:33.160Z,96.60
2018-05-31T03:36:01.051Z,96.80
2018-05-31T03:38:29.025Z,96.20
2018-05-31T03:40:57.617Z,95.40
2018-05-31T03:43:25.309Z,95.30
2018-05-31T03:45:53.885Z,95.10
2018-05-31T03:48:21.661Z,95.10
2018-05-31T03:50:49.348Z,95.50
2018-05-31T03:53:16.985Z,95.30
2018-05-31T03:55:44.714Z,95.00
2018-05-31T03:58:12.368Z,95.70
2018-05-31T04:00:40.052Z,95.70
2018-05-31T04:03:07.810Z,95.80
2018-05-31T04:05:35.712Z,95.40
2018-05-31T04:08:03.533Z,95.10
2018-05-31T04:10:31.443Z,94.70
2018-05-31T04:13:00.404Z,94.50
2018-05-31T04:15:28.870Z,94.80
2018-05-31T04:17:56.614Z,94.80
2018-05-31T04:20:24.248Z,96.80
2018-05-31T04:22:52.700Z,96.50
2018-05-31T04:25:21.275Z,95.30
2018-05-31T04:27:49.056Z,95.30
2018-05-31T04:30:16.749Z,94.70
2018-05-31T04:32:44.605Z,94.50
2018-05-31T04:35:12.302Z,94.50
2018-05-31T04:37:40.874Z,93.90
2018-05-31T04:40:08.654Z,93.80
2018-05-31T04:42:36.529Z,92.70
2018-05-31T04:45:04.311Z,92.30
2018-05-31T04:47:32.185Z,93.30
2018-05-31T04:49:59.894Z,91.80
2018-05-31T04:52:28.472Z,90.10
2018-05-31T04:54:56.329Z,90.00
2018-05-31T04:57:24.132Z,91.40
2018-05-31T04:59:51.878Z,90.60
2018-05-31T05:02:19.693Z,89.90
2018-05-31T05:04:48.250Z,89.50
2018-05-31T05:07:16.069Z,89.30
2018-05-31T05:09:44.700Z,90.80
2018-05-31T05:12:12.425Z,90.80
2018-05-31T05:14:40.398Z,90.10
2018-05-31T05:17:08.155Z,87.40
2018-05-31T05:19:35.856Z,86.10
2018-05-31T05:22:03.607Z,84.20
2018-05-31T05:24:31.384Z,82.50
2018-05-31T05:26:59.020Z,81.10
2018-05-31T05:29:26.831Z,82.40
2018-05-31T05:31:54.509Z,80.90
2018-05-31T05:34:22.308Z,79.10
2018-05-31T05:36:50.370Z,77.90
2018-05-31T05:39:20.705Z,76.90
2018-05-31T05:41:48.687Z,74.40
2018-05-31T05:44:16.826Z,74.20
2018-05-31T05:46:45.395Z,75.60
2018-05-31T05:49:14.064Z,74.90
2018-05-31T05:51:41.834Z,74.80
2018-05-31T05:54:09.708Z,75.20
2018-05-31T05:56:37.387Z,79.70
2018-05-31T05:59:05.169Z,80.00
2018-05-31T06:01:32.936Z,78.10
2018-05-31T06:04:00.633Z,79.10
2018-05-31T06:06:28.409Z,74.60
2018-05-31T06:08:56.857Z,80.00
2018-05-31T06:11:24.577Z,79.90
2018-05-31T06:13:52.248Z,80.50
2018-05-31T06:16:20.107Z,81.50
2018-05-31T06:18:47.781Z,77.30
2018-05-31T06:21:15.789Z,74.40
2018-05-31T06:23:43.458Z,75.40
2018-05-31T06:26:11.985Z,73.90
2018-05-31T06:28:39.705Z,73.80
2018-05-31T06:31:07.582Z,77.90
2018-05-31T06:33:35.379Z,81.10
2018-05-31T06:36:03.237Z,82.10
2018-05-31T06:38:31.014Z,78.80
2018-05-31T06:40:58.685Z,87.50
2018-05-31T06:43:26.311Z,84.20
2018-05-31T06:45:54.010Z,81.40
2018-05-31T06:48:21.712Z,80.10
2018-05-31T06:50:49.897Z,78.20
2018-05-31T06:53:18.273Z,74.80
2018-05-31T06:55:46.985Z,81.70
2018-05-31T06:58:14.766Z,82.20
2018-05-31T07:00:42.686Z,79.90
2018-05-31T07:03:11.443Z,69.40
2018-05-31T07:05:39.217Z,69.30
2018-05-31T07:08:06.996Z,68.90
2018-05-31T07:10:34.655Z,77.30
2018-05-31T07:13:02.451Z,80.90
2018-05-31T07:15:30.240Z,89.70
2018-05-31T07:17:57.995Z,88.70
2018-05-31T07:20:25.792Z,86.90
2018-05-31T07:22:53.576Z,88.70
2018-05-31T07:25:21.251Z,85.70
2018-05-31T07:27:49.008Z,85.80
2018-05-31T07:30:16.907Z,81.50
2018-05-31T07:32:44.655Z,85.40
2018-05-31T07:35:13.659Z,86.80
2018-05-31T07:37:41.434Z,86.70
2018-05-31T07:40:09.210Z,88.90
2018-05-31T07:42:37.081Z,83.50
2018-05-31T07:45:05.070Z,86.30
2018-05-31T07:47:32.769Z,83.20
2018-05-31T07:50:00.416Z,84.00
2018-05-31T07:52:28.202Z,82.90
2018-05-31T07:54:55.971Z,81.70
2018-05-31T07:57:23.647Z,80.00
2018-05-31T07:59:51.421Z,81.20
2018-05-31T08:02:19.198Z,84.00
2018-05-31T08:04:47.161Z,83.10
2018-05-31T08:07:15.339Z,81.90
2018-05-31T08:09:43.238Z,81.20
2018-05-31T08:12:10.915Z,77.90
2018-05-31T08:14:38.585Z,76.90
2018-05-31T08:17:06.289Z,76.30
2018-05-31T08:19:34.452Z,76.50
2018-05-31T08:22:03.234Z,74.50
2018-05-31T08:24:31.109Z,74.50
2018-05-31T08:26:58.904Z,73.60
2018-05-31T08:29:26.601Z,72.90
2018-05-31T08:31:54.235Z,72.80
2018-05-31T08:34:22.031Z,74.20
2018-05-31T08:36:49.811Z,75.00
2018-05-31T08:39:17.606Z,75.20
2018-05-31T08:41:45.228Z,75.70
2018-05-31T08:44:13.749Z,77.10
2018-05-31T08:46:41.527Z,77.10
2018-05-31T08:49:09.303Z,78.30
2018-05-31T08:51:37.184Z,78.50
2018-05-31T08:54:04.992Z,77.60
2018-05-31T08:56:32.839Z,76.20
2018-05-31T08:59:00.479Z,77.30
2018-05-31T09:01:28.144Z,76.70
2018-05-31T09:03:56.678Z,76.00
2018-05-31T09:06:24.455Z,75.90
2018-05-31T09:08:52.234Z,76.20
2018-05-31T09:11:20.106Z,77.70
2018-05-31T09:13:47.808Z,77.80
2018-05-31T09:16:15.581Z,77.80
2018-05-31T09:18:44.181Z,78.20
2018-05-31T09:21:11.962Z,78.20
2018-05-31T09:23:40.664Z,76.70
2018-05-31T09:26:08.432Z,76.70
2018-05-31T09:28:36.185Z,76.10
2018-05-31T09:31:03.976Z,77.50
2018-05-31T09:33:31.671Z,76.90
2018-05-31T09:35:59.433Z,75.30
2018-05-31T09:38:27.201Z,77.60
2018-05-31T09:40:54.880Z,76.50
2018-05-31T09:43:23.369Z,73.50
2018-05-31T09:45:51.047Z,73.50
2018-05-31T09:48:18.798Z,74.10
2018-05-31T09:50:46.575Z,74.70
2018-05-31T09:53:14.550Z,76.10
2018-05-31T09:55:42.233Z,76.20
2018-05-31T09:58:10.240Z,75.50
2018-05-31T10:00:37.888Z,76.30
2018-05-31T10:03:05.680Z,75.20
2018-05-31T10:05:33.321Z,76.40
2018-05-31T10:08:01.760Z,77.40
2018-05-31T10:10:29.444Z,77.40
2018-05-31T10:12:57.299Z,77.10
2018-05-31T10:15:25.042Z,76.30
2018-05-31T10:17:53.488Z,75.80
2018-05-31T10:20:21.368Z,75.60
2018-05-31T10:22:49.118Z,80.00
2018-05-31T10:25:16.898Z,79.20
2018-05-31T10:27:44.752Z,79.20
2018-05-31T10:30:12.582Z,79.10
2018-05-31T10:32:40.224Z,77.90
2018-05-31T10:35:08.008Z,77.10
2018-05-31T10:37:35.780Z,78.80
2018-05-31T10:40:03.508Z,78.90
2018-05-31T10:42:31.942Z,76.70
2018-05-31T10:44:59.751Z,76.70
2018-05-31T10:47:27.412Z,77.00
2018-05-31T10:49:55.087Z,76.40
2018-05-31T10:52:22.834Z,77.90
2018-05-31T10:54:50.781Z,76.80
2018-05-31T10:57:19.205Z,77.50
2018-05-31T10:59:46.880Z,77.40
2018-05-31T11:02:14.513Z,77.60
2018-05-31T11:04:43.076Z,79.50
2018-05-31T11:07:10.934Z,79.10
2018-05-31T11:09:38.812Z,77.60
2018-05-31T11:12:06.517Z,77.90
2018-05-31T11:14:34.140Z,77.50
2018-05-31T11:17:01.937Z,74.20
2018-05-31T11:19:29.635Z,76.50
2018-05-31T11:21:57.387Z,79.20
2018-05-31T11:24:25.273Z,78.40
2018-05-31T11:26:53.149Z,76.30
2018-05-31T11:29:21.077Z,77.80
2018-05-31T11:31:49.730Z,81.90
2018-05-31T11:34:17.599Z,78.00
2018-05-31T11:36:45.376Z,79.10
2018-05-31T11:39:13.045Z,79.60
2018-05-31T11:41:41.081Z,77.90
2018-05-31T11:44:08.909Z,79.30
2018-05-31T11:46:36.686Z,81.30
2018-05-31T11:49:04.463Z,80.30
2018-05-31T11:51:32.239Z,80.10
2018-05-31T11:54:00.016Z,81.00
2018-05-31T11:56:27.691Z,81.80
2018-05-31T11:58:55.469Z,81.70
2018-05-31T12:01:23.618Z,82.20
2018-05-31T12:03:52.248Z,80.40
2018-05-31T12:06:19.943Z,80.40
2018-05-31T12:08:47.797Z,80.00
2018-05-31T12:11:15.984Z,79.80
2018-05-31T12:13:43.848Z,80.50
2018-05-31T12:16:11.827Z,79.90
2018-05-31T12:18:39.593Z,78.90
2018-05-31T12:21:07.292Z,81.20
2018-05-31T12:23:35.075Z,81.40
2018-05-31T12:26:02.741Z,81.60
2018-05-31T12:28:30.742Z,79.80
2018-05-31T12:30:58.579Z,81.20
2018-05-31T12:33:26.260Z,79.80
2018-05-31T12:35:54.054Z,79.50
2018-05-31T12:38:21.756Z,78.00
2018-05-31T12:40:49.532Z,79.30
2018-05-31T12:43:17.392Z,76.70
2018-05-31T12:45:45.189Z,80.50
2018-05-31T12:48:12.935Z,76.80
2018-05-31T12:50:40.711Z,80.00
2018-05-31T12:53:08.489Z,77.20
2018-05-31T12:55:36.289Z,77.80
2018-05-31T12:58:03.957Z,78.90
2018-05-31T13:00:31.629Z,76.20
2018-05-31T13:02:59.386Z,75.60
2018-05-31T13:05:27.084Z,75.30
2018-05-31T13:07:54.838Z,78.60
2018-05-31T13:10:22.719Z,76.10
2018-05-31T13:12:50.497Z,80.80
2018-05-31T13:15:18.485Z,82.10
2018-05-31T13:17:46.357Z,79.00
2018-05-31T13:20:14.253Z,77.00
2018-05-31T13:22:41.935Z,76.50
2018-05-31T13:25:09.734Z,75.10
2018-05-31T13:27:38.303Z,71.00
2018-05-31T13:30:06.052Z,71.40
2018-05-31T13:32:33.752Z,71.90
2018-05-31T13:35:01.502Z,74.00
2018-05-31T13:37:29.300Z,76.60
2018-05-31T13:39:56.971Z,76.90
2018-05-31T13:42:24.651Z,74.60
2018-05-31T13:44:52.608Z,74.40
2018-05-31T13:47:20.310Z,77.40
2018-05-31T13:49:47.940Z,80.40
2018-05-31T13:52:15.623Z,78.00
2018-05-31T13:54:43.506Z,74.00
2018-05-31T13:57:11.304Z,74.30
2018-05-31T13:59:38.957Z,72.10
2018-05-31T14:02:06.632Z,70.70
2018-05-31T14:04:34.334Z,72.30
2018-05-31T14:07:02.287Z,73.60
2018-05-31T14:09:30.074Z,70.80
2018-05-31T14:11:57.761Z,75.80
2018-05-31T14:14:25.532Z,75.20
2018-05-31T14:16:53.211Z,74.60
2018-05-31T14:19:20.985Z,74.10
2018-05-31T14:21:48.635Z,72.40
2018-05-31T14:24:16.537Z,72.80
2018-05-31T14:26:44.599Z,72.30
2018-05-31T14:29:12.713Z,73.60
2018-05-31T14:31:40.400Z,73.90
2018-05-31T14:34:08.080Z,78.50
2018-05-31T14:36:35.949Z,74.50
2018-05-31T14:39:03.773Z,73.20
2018-05-31T14:41:32.526Z,74.20
2018-05-31T14:44:00.232Z,74.00
2018-05-31T14:46:28.841Z,73.30
2018-05-31T14:48:56.509Z,72.40
2018-05-31T14:51:24.364Z,70.60
2018-05-31T14:53:52.149Z,72.80
2018-05-31T14:56:19.925Z,70.00
2018-05-31T14:58:48.418Z,71.90
2018-05-31T15:01:16.277Z,72.40
2018-05-31T15:03:43.963Z,74.60
2018-05-31T15:06:11.727Z,75.70
2018-05-31T15:08:39.419Z,74.40
2018-05-31T15:11:07.272Z,74.00
2018-05-31T15:13:34.971Z,74.10
2018-05-31T15:16:02.819Z,72.20
2018-05-31T15:18:30.497Z,72.60
2018-05-31T15:20:58.170Z,71.90
2018-05-31T15:23:25.838Z,69.90
2018-05-31T15:25:53.826Z,70.90
2018-05-31T15:28:21.608Z,70.70
2018-05-31T15:30:49.381Z,70.80
2018-05-31T15:33:17.155Z,70.40
2018-05-31T15:35:44.936Z,72.00
2018-05-31T15:38:12.629Z,68.80
2018-05-31T15:40:40.484Z,71.10
2018-05-31T15:43:08.180Z,72.60
2018-05-31T15:45:35.936Z,73.10
2018-05-31T15:48:03.732Z,71.00
2018-05-31T15:50:31.411Z,66.70
2018-05-31T15:52:59.184Z,68.30
2018-05-31T15:55:26.943Z,66.50
2018-05-31T15:57:54.924Z,65.80
2018-05-31T16:00:22.803Z,67.30
2018-05-31T16:02:51.325Z,66.30
2018-05-31T16:05:19.092Z,66.20
2018-05-31T16:07:46.865Z,67.30
2018-05-31T16:10:14.619Z,69.20
2018-05-31T16:12:42.395Z,69.10
2018-05-31T16:15:10.529Z,67.10
2018-05-31T16:17:38.276Z,67.20
2018-05-31T16:20:05.956Z,64.90
2018-05-31T16:22:33.635Z,65.80
2018-05-31T16:25:01.612Z,66.20
2018-05-31T16:27:29.280Z,68.40
2018-05-31T16:29:57.241Z,69.60
2018-05-31T16:32:25.088Z,67.90
2018-05-31T16:34:53.816Z,68.10
2018-05-31T16:37:21.529Z,68.20
2018-05-31T16:39:49.273Z,71.00
2018-05-31T16:42:17.041Z,72.30
2018-05-31T16:44:45.151Z,73.50
2018-05-31T16:47:12.823Z,75.00
2018-05-31T16:49:40.678Z,74.50
2018-05-31T16:52:08.354Z,73.50
2018-05-31T16:54:36.230Z,73.70
2018-05-31T16:57:03.929Z,73.00
2018-05-31T16:59:31.783Z,74.10
2018-05-31T17:01:59.456Z,74.10
2018-05-31T17:04:27.235Z,72.60
2018-05-31T17:06:55.043Z,74.70
2018-05-31T17:09:22.890Z,74.80
2018-05-31T17:11:50.769Z,74.50
2018-05-31T17:14:18.543Z,75.40
2018-05-31T17:16:46.341Z,74.60
2018-05-31T17:19:14.096Z,74.90
2018-05-31T17:21:41.898Z,72.70
2018-05-31T17:24:09.955Z,73.60
2018-05-31T17:26:37.837Z,74.70
2018-05-31T17:29:05.536Z,76.00
2018-05-31T17:31:33.316Z,75.70
2018-05-31T17:34:01.063Z,74.10
2018-05-31T17:36:28.940Z,73.70
2018-05-31T17:38:56.576Z,72.40
2018-05-31T17:41:25.025Z,77.30
2018-05-31T17:43:53.090Z,77.30
2018-05-31T17:46:20.865Z,76.40
2018-05-31T17:48:48.567Z,76.20
2018-05-31T17:51:16.220Z,76.40
2018-05-31T17:53:43.909Z,78.20
2018-05-31T17:56:11.590Z,78.20
2018-05-31T17:58:40.999Z,75.90
2018-05-31T18:01:08.956Z,75.80
2018-05-31T18:03:36.624Z,75.60
2018-05-31T18:06:04.405Z,76.40
2018-05-31T18:08:32.100Z,75.20
2018-05-31T18:10:59.857Z,75.10
2018-05-31T18:13:27.632Z,74.30
2018-05-31T18:15:55.513Z,74.90
2018-05-31T18:18:23.316Z,75.30
2018-05-31T18:20:51.207Z,77.20
2018-05-31T18:23:18.873Z,77.30
2018-05-31T18:25:46.532Z,77.00
2018-05-31T18:28:14.391Z,77.10
2018-05-31T18:30:42.065Z,77.00
2018-05-31T18:33:09.946Z,76.50
2018-05-31T18:35:37.585Z,76.90
2018-05-31T18:38:05.395Z,76.80
2018-05-31T18:40:33.109Z,77.40
2018-05-31T18:43:00.845Z,77.90
2018-05-31T18:45:28.524Z,75.80
2018-05-31T18:47:56.161Z,79.00
2018-05-31T18:50:24.791Z,79.80
2018-05-31T18:52:52.494Z,79.70
2018-05-31T18:55:20.240Z,80.70
2018-05-31T18:57:47.937Z,79.40
2018-05-31T19:00:15.601Z,78.90
2018-05-31T19:02:43.362Z,78.90
2018-05-31T19:05:11.139Z,79.00
2018-05-31T19:07:38.914Z,78.60
2018-05-31T19:10:06.633Z,78.40
2018-05-31T19:12:40.120Z,80.30
2018-05-31T19:15:07.815Z,79.70
2018-05-31T19:17:35.480Z,79.00
2018-05-31T19:20:03.254Z,79.10
2018-05-31T19:22:30.924Z,79.40
2018-05-31T19:25:04.617Z,78.80
2018-05-31T19:27:32.390Z,79.70
2018-05-31T19:33:01.944Z,79.10
2018-05-31T19:35:35.249Z,80.60
2018-05-31T19:38:03.025Z,84.50
2018-05-31T19:40:30.825Z,84.80
2018-05-31T19:46:03.345Z,87.70
2018-05-31T19:48:31.102Z,88.30
2018-05-31T19:50:58.877Z,88.00
2018-05-31T19:53:32.204Z,88.30
2018-05-31T19:56:00.072Z,87.40
2018-05-31T19:58:33.441Z,88.60
2018-05-31T20:01:06.982Z,89.70
2018-05-31T20:03:34.632Z,88.90
2018-05-31T20:06:02.312Z,89.60
2018-05-31T20:08:30.106Z,89.30
2018-05-31T20:10:57.890Z,91.50
2018-05-31T20:13:25.874Z,91.40
2018-05-31T20:15:53.845Z,91.10
2018-05-31T20:18:21.652Z,91.20
2018-05-31T20:20:49.551Z,91.30
2018-05-31T20:23:17.298Z,91.50
2018-05-31T20:25:45.051Z,91.70
2018-05-31T20:28:12.831Z,90.90
2018-05-31T20:30:40.660Z,90.70
2018-05-31T20:33:08.483Z,91.00
2018-05-31T20:35:36.116Z,91.50
2018-05-31T20:38:04.752Z,91.60
2018-05-31T20:40:32.451Z,91.60
2018-05-31T20:43:00.203Z,91.30
2018-05-31T20:45:27.980Z,91.20
2018-05-31T20:47:55.885Z,91.50
2018-05-31T20:50:23.843Z,91.60
2018-05-31T20:52:51.894Z,91.90
2018-05-31T20:55:19.735Z,91.80
2018-05-31T20:57:48.213Z,91.60
2018-05-31T21:00:15.889Z,91.50
2018-05-31T21:02:43.644Z,91.50
2018-05-31T21:05:11.340Z,91.20
2018-05-31T21:07:39.098Z,91.60
2018-05-31T21:10:06.768Z,91.50
2018-05-31T21:12:34.544Z,91.70
2018-05-31T21:15:02.320Z,92.00
2018-05-31T21:17:30.024Z,91.80
2018-05-31T21:19:57.775Z,92.00
2018-05-31T21:22:26.572Z,92.60
2018-05-31T21:24:54.272Z,92.60
2018-05-31T21:27:22.127Z,92.60
2018-05-31T21:29:49.857Z,92.60
2018-05-31T21:32:17.597Z,92.60
2018-05-31T21:34:45.272Z,92.50
2018-05-31T21:37:13.023Z,92.90
2018-05-31T21:39:40.697Z,93.00
2018-05-31T21:42:08.393Z,92.80
2018-05-31T21:44:36.253Z,92.50
2018-05-31T21:47:03.944Z,92.50
2018-05-31T21:49:31.597Z,92.50
2018-05-31T21:51:59.375Z,92.90
2018-05-31T21:54:27.022Z,92.80
2018-05-31T21:56:54.768Z,92.90
2018-05-31T21:59:22.605Z,93.00
2018-05-31T22:01:50.424Z,93.30
2018-05-31T22:04:18.154Z,92.70
2018-05-31T22:06:45.928Z,95.30
2018-05-31T22:09:13.574Z,95.20
2018-05-31T22:11:41.386Z,95.10
2018-05-31T22:14:09.053Z,95.10
2018-05-31T22:16:36.752Z,94.50
2018-05-31T22:19:04.504Z,94.20
2018-05-31T22:21:32.279Z,94.10
2018-05-31T22:24:00.057Z,93.80
2018-05-31T22:26:27.843Z,93.10
2018-05-31T22:28:55.488Z,94.20
2018-05-31T22:31:23.211Z,93.70
2018-05-31T22:33:51.062Z,94.40
2018-05-31T22:36:18.756Z,94.20
2018-05-31T22:38:46.431Z,94.10
2018-05-31T22:41:14.104Z,93.30
2018-05-31T22:43:41.859Z,94.40
2018-05-31T22:46:09.532Z,94.60
2018-05-31T22:48:37.308Z,94.50
2018-05-31T22:51:04.932Z,94.50
2018-05-31T22:53:32.600Z,94.20
2018-05-31T22:56:00.261Z,94.60
2018-05-31T22:58:27.928Z,94.50
2018-05-31T23:00:55.611Z,94.30
2018-05-31T23:03:23.561Z,94.40
2018-05-31T23:05:51.336Z,94.20
2018-05-31T23:08:19.133Z,94.10
2018-05-31T23:10:46.884Z,94.00
2018-05-31T23:13:14.593Z,94.10
2018-05-31T23:15:42.356Z,94.10
2018-05-31T23:18:10.134Z,94.10
2018-05-31T23:20:37.895Z,94.00
2018-05-31T23:23:05.604Z,94.20
2018-05-31T23:25:33.341Z,94.10
2018-05-31T23:28:01.013Z,94.10
2018-05-31T23:30:28.708Z,94.10
2018-05-31T23:32:56.588Z,94.10
2018-05-31T23:35:24.445Z,94.10
2018-05-31T23:37:52.148Z,94.20
2018-05-31T23:40:19.898Z,94.20
2018-05-31T23:42:47.542Z,94.30
2018-05-31T23:45:15.343Z,94.10
2018-05-31T23:47:43.122Z,94.20
2018-05-31T23:50:10.898Z,94.80
2018-05-31T23:52:38.594Z,94.60
2018-05-31T23:55:06.377Z,94.90
2018-05-31T23:57:34.126Z,94.70
